Etusivu
METAR-TAF:

METAR-TAF

Lentoasemat :

Caracas, Venezuela

Leveyspiiri: 10-36N, Pituuspiiri: 066-59W, korkeus merenpinnasta: 43 m

Tämänhetkinen sää

Tämä raportti tehtiin 13 minuuttia sitten, kello 17.00 UTC
Tuuli 4 kn idästä/koillisesta
Lämpötila 30°C
Kosteus 70%
Ilmanpaine 1010 hPa
Näkyvyys 10 km tai enemmän
Hajonneita pilviä 1600 ft:n korkeudessa

METAR: SVMI 191700Z 07004KT 9999 BKN016 30/24 Q1010

Aika: 13:13 (17:13 UTC)

Sääennuste

Tämä raportti tehtiin 7 tuntia ja 13 minuuttia sitten, kello 10.00 UTC
Ennuste voimassa 19. päivästä klo 12 UTC - 20. päivään klo 12 UTC
Tuuli 5 kn koillisesta
Näkyvyys 10 km tai enemmän
Muutamia pilviä 1600 ft:n korkeudessa
Tulossa
19. päivästä klo 12 UTC - 19. päivään klo 16 UTC
Tuuli 5 kn idästä
Hajanaisia pilviä 1600 ft:n korkeudessa

TAF: SVMI 191000Z 1912/2012 05005KT 9999 FEW016 TX33/19Z TN27/09Z BECMG 1912/1916 09005KT SCT016

Säähavainnot ja -ennusteet yli 4000 lentoasemalta (METAR- ja TAF-raportit).

Käytössä olevat sääasemat on merkitty karttaan keltaisilla ja punaisilla pisteillä.

Aseta hiiri pisteen päälle nähdäksesi sääaseman nimen.

Klikkaa sitten nähdäksesi säähavainnot ja -ennusteet.

Kartan vaihtaminen: klikkaa mustalla rastilla varustettuja vihreitä pisteitä, niin voit zoomata sisään; viivalla varustettua vihreää pistettä, niin voit zoomata ulos tai vihreitä nuolia, niin pääset viereisille kartoille.


METAR-TAF: